Time;durP1;ratioP1;P1;durP2;ratioP2;P2;SDS_P1;SDS_P2;PMS_P1;PMS_P2;Temp;Humidity;BMP_temperature;BMP_pressure;BME280_temperature;BME280_humidity;BME280_pressure;Samples;Min_cycle;Max_cycle;Signal;HPM_P1;HPM_P2
2020/12/06 00:01:18;;;;;;;11.33;7.03;;;;;;;4.30;100.00;99969.53;1854135;75;934724;-75
2020/12/06 00:03:47;;;;;;;7.83;6.70;;;;;;;4.25;100.00;99973.62;1845813;76;934669;-75
2020/12/06 00:06:21;;;;;;;12.03;6.45;;;;;;;4.29;100.00;99978.03;1854504;75;932573;-75
2020/12/06 00:08:51;;;;;;;10.27;6.27;;;;;;;4.04;100.00;99986.94;1845842;76;934549;-75
2020/12/06 00:11:21;;;;;;;10.03;7.43;;;;;;;4.01;100.00;99984.19;1853715;75;934634;-75
2020/12/06 00:13:51;;;;;;;12.03;7.87;;;;;;;4.12;100.00;99985.07;1865932;75;934650;-75
2020/12/06 00:16:22;;;;;;;9.90;7.78;;;;;;;4.24;100.00;99988.45;1826000;76;934810;-75
2020/12/06 00:18:51;;;;;;;12.20;7.70;;;;;;;4.20;100.00;99991.44;1888159;75;931419;-75
2020/12/06 00:21:23;;;;;;;10.90;7.25;;;;;;;4.19;100.00;99990.36;1833713;76;934526;-75
2020/12/06 00:23:53;;;;;;;9.97;7.73;;;;;;;4.04;100.00;99999.30;1866414;75;934725;-75
2020/12/06 00:26:25;;;;;;;11.05;7.95;;;;;;;4.01;100.00;99996.55;1833793;76;932745;-75
2020/12/06 00:28:55;;;;;;;21.23;7.73;;;;;;;4.20;100.00;99996.94;1866044;75;933433;-75
2020/12/06 00:31:25;;;;;;;12.40;7.67;;;;;;;4.04;100.00;99998.76;1833744;76;934888;-75
2020/12/06 00:33:55;;;;;;;10.27;8.37;;;;;;;4.20;100.00;99996.11;1865349;75;935021;-75
2020/12/06 00:36:25;;;;;;;11.80;7.75;;;;;;;4.11;100.00;99999.89;1854520;75;934750;-75
2020/12/06 00:38:55;;;;;;;10.87;7.57;;;;;;;4.03;100.00;99997.64;1866719;75;934528;-75
2020/12/06 00:41:24;;;;;;;11.43;7.17;;;;;;;3.71;100.00;99996.83;1833838;76;934578;-75
2020/12/06 00:43:54;;;;;;;13.90;7.67;;;;;;;3.80;100.00;99992.52;1866009;75;934547;-75
2020/12/06 00:46:24;;;;;;;8.88;7.80;;;;;;;3.93;100.00;99998.41;1833757;76;934791;-75
2020/12/06 00:48:54;;;;;;;11.77;7.77;;;;;;;3.97;100.00;100004.20;1866322;75;932459;-75
2020/12/06 00:51:24;;;;;;;11.83;8.25;;;;;;;3.99;100.00;100005.59;1833613;76;936612;-75
2020/12/06 00:53:54;;;;;;;9.90;8.50;;;;;;;3.86;100.00;100006.56;1866400;75;936668;-75
2020/12/06 00:56:23;;;;;;;9.45;7.47;;;;;;;3.96;100.00;100002.55;1833664;76;934590;-75
2020/12/06 00:58:53;;;;;;;12.80;7.77;;;;;;;3.72;100.00;100008.11;1866196;76;934658;-75
2020/12/06 01:01:23;;;;;;;11.63;7.15;;;;;;;3.83;100.00;100008.47;1833633;76;936615;-75
2020/12/06 01:03:53;;;;;;;11.70;7.70;;;;;;;3.71;100.00;100011.40;1865922;76;937060;-75
2020/12/06 01:06:24;;;;;;;10.53;7.50;;;;;;;3.70;100.00;100011.65;1853428;75;939747;-75
2020/12/06 01:08:54;;;;;;;8.07;6.60;;;;;;;3.55;100.00;100020.02;1845662;76;936834;-75
2020/12/06 01:11:24;;;;;;;8.10;6.93;;;;;;;3.83;100.00;100013.97;1854366;75;934738;-76
2020/12/06 01:13:54;;;;;;;8.10;6.70;;;;;;;3.67;100.00;100017.13;1866548;75;934827;-76
2020/12/06 01:16:24;;;;;;;9.23;7.43;;;;;;;3.54;100.00;100017.55;1854012;75;934519;-75
2020/12/06 01:18:53;;;;;;;10.83;7.30;;;;;;;3.51;100.00;100018.05;1866406;75;934522;-75
2020/12/06 01:21:23;;;;;;;8.45;6.62;;;;;;;3.42;100.00;100023.20;1833475;77;936726;-75
2020/12/06 01:23:53;;;;;;;11.73;7.53;;;;;;;3.56;100.00;100036.78;1866199;76;934513;-75
2020/12/06 01:26:23;;;;;;;10.30;7.30;;;;;;;3.61;100.00;100034.09;1833505;76;937236;-75
2020/12/06 01:28:53;;;;;;;9.90;7.43;;;;;;;3.82;100.00;100028.78;1866128;75;936620;-75
2020/12/06 01:31:22;;;;;;;11.45;7.35;;;;;;;4.02;100.00;100035.84;1854074;76;944399;-75
2020/12/06 01:33:52;;;;;;;10.60;7.07;;;;;;;4.17;100.00;100033.20;1845664;76;936724;-75
2020/12/06 01:36:22;;;;;;;9.83;7.30;;;;;;;4.21;100.00;100032.12;1854199;75;936724;-75
2020/12/06 01:38:52;;;;;;;13.27;7.30;;;;;;;4.40;100.00;100028.72;1866420;76;934548;-75
2020/12/06 01:41:22;;;;;;;9.70;6.92;;;;;;;4.42;100.00;100029.27;1833552;76;939719;-75
2020/12/06 01:43:58;;;;;;;8.23;6.10;;;;;;;4.51;100.00;100039.22;1866319;75;934577;-75
2020/12/06 01:46:28;;;;;;;8.73;6.33;;;;;;;4.43;100.00;100033.67;1831988;77;934553;-75
2020/12/06 01:48:58;;;;;;;8.23;6.03;;;;;;;4.41;100.00;100031.72;1866478;76;932662;-75
2020/12/06 01:51:28;;;;;;;7.07;6.03;;;;;;;4.48;100.00;100035.09;1855146;75;934786;-75
2020/12/06 01:53:58;;;;;;;7.67;6.60;;;;;;;4.45;100.00;100042.47;1845745;76;932680;-75
2020/12/06 01:56:28;;;;;;;10.93;6.60;;;;;;;4.19;100.00;100044.78;1854146;75;934522;-75
2020/12/06 01:58:58;;;;;;;8.43;6.33;;;;;;;4.19;100.00;100044.78;1866196;76;934756;-75
2020/12/06 02:01:28;;;;;;;6.85;6.00;;;;;;;4.08;100.00;100052.64;1854293;76;934483;-75
2020/12/06 02:03:57;;;;;;;11.97;6.17;;;;;;;3.98;100.00;100047.08;1845819;76;933045;-75
2020/12/06 02:06:28;;;;;;;11.25;6.72;;;;;;;4.09;100.00;100052.93;1854243;75;936826;-75
2020/12/06 02:08:59;;;;;;;8.03;6.43;;;;;;;4.28;100.00;100054.17;1845701;76;934802;-75
2020/12/06 02:11:33;;;;;;;9.63;6.30;;;;;;;4.37;100.00;100060.00;1853686;75;934877;-75
2020/12/06 02:14:03;;;;;;;9.93;6.67;;;;;;;4.51;100.00;100059.84;1866303;75;932586;-75
2020/12/06 02:16:34;;;;;;;10.57;6.53;;;;;;;4.38;100.00;100058.92;1833519;76;934691;-75
2020/12/06 02:19:05;;;;;;;9.17;6.60;;;;;;;4.41;100.00;100051.51;1866620;76;934747;-75
2020/12/06 02:21:38;;;;;;;9.77;6.80;;;;;;;4.25;100.00;100057.99;1854095;75;934619;-75
2020/12/06 02:24:09;;;;;;;12.10;7.43;;;;;;;4.12;100.00;100065.59;1866064;76;932804;-75
2020/12/06 02:26:40;;;;;;;8.40;6.73;;;;;;;4.12;100.00;100061.47;1845579;76;937195;-75
2020/12/06 02:29:11;;;;;;;12.93;7.73;;;;;;;3.99;100.00;100063.83;1866417;76;932747;-75
2020/12/06 02:31:41;;;;;;;8.40;7.23;;;;;;;3.85;100.00;100072.23;1845572;77;936877;-75
2020/12/06 02:34:12;;;;;;;9.10;7.57;;;;;;;3.54;100.00;100069.17;1854002;76;934727;-76
2020/12/06 02:36:42;;;;;;;11.93;7.90;;;;;;;3.50;100.00;100069.41;1866138;76;934571;-75
2020/12/06 02:39:14;;;;;;;13.67;8.00;;;;;;;3.75;100.00;100069.38;1833442;76;936750;-76
2020/12/06 02:41:46;;;;;;;9.90;8.20;;;;;;;3.85;100.00;100070.28;1866676;75;936692;-75
2020/12/06 02:44:16;;;;;;;13.18;8.53;;;;;;;3.68;100.00;100073.69;1833762;76;934686;-75
2020/12/06 02:46:46;;;;;;;14.53;8.77;;;;;;;3.63;100.00;100075.86;1865884;75;936604;-75
2020/12/06 02:49:16;;;;;;;13.88;9.48;;;;;;;3.58;100.00;100077.17;1853744;76;936588;-75
2020/12/06 02:51:46;;;;;;;14.33;9.20;;;;;;;3.73;100.00;100078.41;1845578;77;936639;-75
2020/12/06 02:54:16;;;;;;;12.20;9.33;;;;;;;3.82;100.00;100072.73;1854020;76;936692;-75
2020/12/06 02:56:45;;;;;;;14.20;10.20;;;;;;;3.94;100.00;100069.27;1866696;76;936669;-75
2020/12/06 02:59:16;;;;;;;12.28;9.98;;;;;;;3.86;100.00;100080.19;1833622;76;938872;-75
2020/12/06 03:01:45;;;;;;;14.13;10.43;;;;;;;3.95;100.00;100081.37;1866271;75;936575;-75
2020/12/06 03:04:15;;;;;;;13.57;9.77;;;;;;;3.98;100.00;100071.23;1833812;76;938736;-75
2020/12/06 03:06:45;;;;;;;17.27;10.87;;;;;;;4.03;100.00;100071.28;1866217;76;936604;-75
2020/12/06 03:09:15;;;;;;;17.67;11.13;;;;;;;4.04;100.00;100076.23;1833285;77;938791;-76
2020/12/06 03:11:45;;;;;;;15.78;10.88;;;;;;;4.17;100.00;100074.43;1865830;76;938074;-75
2020/12/06 03:14:15;;;;;;;15.17;11.33;;;;;;;4.08;100.00;100076.83;1853853;76;939055;-75
2020/12/06 03:16:45;;;;;;;17.60;11.70;;;;;;;4.23;100.00;100075.31;1845425;76;938763;-75
2020/12/06 03:19:15;;;;;;;17.70;11.90;;;;;;;4.08;100.00;100081.49;1853758;76;938753;-75
2020/12/06 03:21:44;;;;;;;16.90;12.03;;;;;;;4.13;100.00;100085.13;1844706;76;938851;-75
2020/12/06 03:24:15;;;;;;;19.23;13.50;;;;;;;4.18;100.00;100084.34;1853352;75;938736;-76
2020/12/06 03:26:45;;;;;;;17.23;13.53;;;;;;;4.29;100.00;100089.36;1843452;77;938852;-75
2020/12/06 03:29:15;;;;;;;13.70;11.07;;;;;;;4.18;100.00;100093.95;1853607;75;938748;-75
2020/12/06 03:31:44;;;;;;;15.90;12.53;;;;;;;4.22;100.00;100100.59;1845441;77;939254;-75
2020/12/06 03:34:14;;;;;;;17.43;12.33;;;;;;;4.11;100.00;100105.70;1853658;75;938820;-75
2020/12/06 03:36:44;;;;;;;18.53;13.87;;;;;;;4.17;100.00;100112.91;1845544;76;938858;-75
2020/12/06 03:39:15;;;;;;;18.83;12.80;;;;;;;4.15;100.00;100118.39;1853570;76;948556;-75
2020/12/06 03:41:47;;;;;;;17.27;12.23;;;;;;;4.24;100.00;100127.79;1845016;76;938800;-75
2020/12/06 03:44:17;;;;;;;19.30;12.68;;;;;;;4.19;100.00;100128.61;1853606;75;938742;-75
2020/12/06 03:46:47;;;;;;;17.70;12.97;;;;;;;4.16;100.00;100125.52;1866096;75;938790;-74
2020/12/06 03:49:17;;;;;;;16.48;13.22;;;;;;;4.21;100.00;100138.78;1833018;77;938951;-75
2020/12/06 03:51:46;;;;;;;19.10;12.97;;;;;;;4.23;100.00;100139.36;1865923;75;937563;-74
2020/12/06 03:54:16;;;;;;;18.48;12.75;;;;;;;4.21;100.00;100133.28;1833311;76;938871;-74
2020/12/06 03:56:46;;;;;;;16.50;12.47;;;;;;;4.23;100.00;100134.41;1865847;75;938792;-75
2020/12/06 03:59:16;;;;;;;16.00;13.32;;;;;;;4.05;100.00;100135.06;1832598;77;938766;-75
2020/12/06 04:01:46;;;;;;;16.50;11.77;;;;;;;4.17;100.00;100136.27;1866095;76;938764;-75
2020/12/06 04:04:15;;;;;;;16.60;11.97;;;;;;;4.24;100.00;100121.75;1834203;76;938742;-75
2020/12/06 04:06:45;;;;;;;15.33;11.60;;;;;;;4.23;100.00;100124.24;1866217;75;938894;-75
2020/12/06 04:09:15;;;;;;;15.20;11.73;;;;;;;4.24;100.00;100121.75;1853859;75;938732;-75
2020/12/06 04:11:45;;;;;;;17.07;12.57;;;;;;;4.22;100.00;100125.33;1845435;76;938761;-75
2020/12/06 04:14:15;;;;;;;14.13;11.30;;;;;;;4.25;100.00;100133.58;1853203;75;938684;-75
2020/12/06 04:16:45;;;;;;;14.50;11.53;;;;;;;4.20;100.00;100133.53;1866180;75;938696;-75
2020/12/06 04:19:14;;;;;;;18.10;11.43;;;;;;;4.22;100.00;100135.48;1833338;77;937683;-75
2020/12/06 04:21:44;;;;;;;16.40;11.27;;;;;;;4.24;100.00;100131.91;1866308;75;938580;-75
2020/12/06 04:24:15;;;;;;;14.80;11.13;;;;;;;4.26;100.00;100144.33;1833083;76;938829;-75
2020/12/06 04:26:45;;;;;;;15.77;10.97;;;;;;;4.21;100.00;100150.31;1865847;75;938645;-75
2020/12/06 04:29:15;;;;;;;14.47;9.53;;;;;;;4.34;100.00;100142.47;1833329;77;939050;-75
2020/12/06 04:31:45;;;;;;;14.50;9.80;;;;;;;4.24;100.00;100145.12;1866116;76;937224;-75
2020/12/06 04:34:15;;;;;;;17.17;10.63;;;;;;;4.30;100.00;100145.46;1833317;77;936638;-75
2020/12/06 04:36:45;;;;;;;13.83;10.67;;;;;;;4.17;100.00;100145.89;1845352;75;938817;-75
2020/12/06 04:39:14;;;;;;;15.40;10.93;;;;;;;4.23;100.00;100155.02;1853819;75;938646;-75
2020/12/06 04:41:44;;;;;;;15.47;11.03;;;;;;;4.21;100.00;100147.56;1844548;77;938709;-75
2020/12/06 04:44:14;;;;;;;12.67;10.50;;;;;;;4.23;100.00;100150.89;1853456;76;938689;-75
2020/12/06 04:46:44;;;;;;;15.25;10.68;;;;;;;4.17;100.00;100154.13;1845370;76;938707;-74
2020/12/06 04:49:42;;;;;;;13.43;9.97;;;;;;;4.17;100.00;100156.88;1853379;75;938884;-75
2020/12/06 04:52:04;;;;;;;11.63;9.23;;;;;;;4.29;100.00;100161.66;1866350;75;934723;-75
2020/12/06 04:54:37;;;;;;;12.57;9.77;;;;;;;4.23;100.00;100165.47;1833354;77;936699;-75
2020/12/06 04:57:08;;;;;;;13.57;9.50;;;;;;;4.20;100.00;100170.63;1866076;75;934945;-74
2020/12/06 04:59:43;;;;;;;11.33;8.77;;;;;;;4.16;100.00;100175.83;1845607;77;936633;-75
2020/12/06 05:02:15;;;;;;;11.47;9.33;;;;;;;4.21;100.00;100172.30;1841137;75;936902;-75
2020/12/06 05:04:46;;;;;;;14.47;9.93;;;;;;;4.20;100.00;100181.09;1845964;76;936728;-74
2020/12/06 05:07:18;;;;;;;13.38;10.13;;;;;;;4.11;100.00;100181.27;1853478;75;936601;-74
2020/12/06 05:09:49;;;;;;;14.30;10.00;;;;;;;4.12;100.00;100180.19;1845434;76;938764;-74
2020/12/06 05:12:20;;;;;;;14.75;10.25;;;;;;;4.23;100.00;100188.84;1853722;75;938785;-74
2020/12/06 05:14:51;;;;;;;14.43;10.10;;;;;;;4.11;100.00;100188.97;1845500;76;938904;-74
2020/12/06 05:17:21;;;;;;;13.22;10.53;;;;;;;4.17;100.00;100191.23;1853495;75;939116;-74
2020/12/06 05:19:50;;;;;;;11.10;8.73;;;;;;;4.13;100.00;100187.34;1866147;75;938783;-75
2020/12/06 05:22:22;;;;;;;12.70;10.38;;;;;;;4.03;100.00;100186.69;1833416;76;937002;-75
2020/12/06 05:24:52;;;;;;;13.37;9.00;;;;;;;4.07;100.00;100185.63;1865598;75;938776;-74
2020/12/06 05:27:22;;;;;;;11.83;8.87;;;;;;;4.11;100.00;100185.39;1854187;75;936575;-75
2020/12/06 05:29:53;;;;;;;12.03;9.13;;;;;;;4.02;100.00;100185.02;1845575;76;936833;-75
2020/12/06 05:32:23;;;;;;;11.33;8.75;;;;;;;4.03;100.00;100178.98;1853933;75;939836;-75
2020/12/06 05:34:55;;;;;;;13.30;9.50;;;;;;;4.00;100.00;100181.72;1866272;76;936822;-75
2020/12/06 05:37:25;;;;;;;13.23;9.87;;;;;;;4.01;100.00;100181.18;1854071;75;936585;-75
2020/12/06 05:40:03;;;;;;;13.43;9.47;;;;;;;3.87;100.00;100180.75;1845687;76;936605;-74
2020/12/06 05:42:34;;;;;;;14.43;9.73;;;;;;;3.90;100.00;100186.26;1853843;76;936570;-75
2020/12/06 05:45:06;;;;;;;13.63;9.63;;;;;;;3.88;100.00;100182.42;1845377;76;934734;-75
2020/12/06 05:47:36;;;;;;;13.87;9.67;;;;;;;3.77;100.00;100190.77;1853806;75;936779;-74
2020/12/06 05:50:06;;;;;;;14.27;10.40;;;;;;;3.75;100.00;100181.98;1845678;76;935112;-75
2020/12/06 05:52:37;;;;;;;14.20;10.00;;;;;;;3.75;100.00;100185.56;1845556;76;938804;-74
2020/12/06 05:55:07;;;;;;;14.70;10.53;;;;;;;3.69;100.00;100186.57;1845577;76;937031;-75
2020/12/06 05:57:38;;;;;;;14.83;10.73;;;;;;;3.70;100.00;100192.36;1866693;76;938717;-75
2020/12/06 06:00:07;;;;;;;14.67;11.00;;;;;;;3.64;100.00;100195.58;1844409;76;936949;-75
2020/12/06 06:02:40;;;;;;;16.70;11.80;;;;;;;3.75;100.00;100195.17;1865877;75;938761;-74
2020/12/06 06:05:12;;;;;;;16.73;11.80;;;;;;;3.58;100.00;100197.16;1841830;76;938679;-75
2020/12/06 06:07:45;;;;;;;16.93;11.50;;;;;;;3.42;100.00;100206.28;1887916;75;938774;-75
2020/12/06 06:10:18;;;;;;;15.73;11.63;;;;;;;3.50;100.00;100201.72;1875500;75;938692;-75
2020/12/06 06:12:51;;;;;;;18.83;11.50;;;;;;;3.36;100.00;100207.28;1845287;76;939309;-74
2020/12/06 06:15:23;;;;;;;17.45;11.83;;;;;;;3.16;100.00;100205.94;1853185;75;939118;-74
2020/12/06 06:17:55;;;;;;;17.37;11.50;;;;;;;3.40;100.00;100207.90;1845624;76;938966;-74
2020/12/06 06:20:26;;;;;;;19.57;12.88;;;;;;;3.47;100.00;100211.28;1854037;75;938750;-74
2020/12/06 06:22:57;;;;;;;20.77;13.37;;;;;;;3.52;100.00;100212.72;1865676;76;936816;-74
2020/12/06 06:25:28;;;;;;;22.40;14.20;;;;;;;3.29;100.00;100199.25;1833591;76;938587;-75
2020/12/06 06:27:59;;;;;;;20.97;12.67;;;;;;;3.37;100.00;100211.70;1866545;75;936872;-74
2020/12/06 06:30:30;;;;;;;19.40;12.77;;;;;;;3.41;100.00;100212.31;1854085;75;938720;-74
2020/12/06 06:33:12;;;;;;;19.73;12.80;;;;;;;3.63;100.00;100211.78;1845448;77;936766;-74
2020/12/06 06:35:46;;;;;;;21.13;13.43;;;;;;;3.58;100.00;100223.23;1866942;76;938812;-74
2020/12/06 06:38:18;;;;;;;18.30;13.30;;;;;;;3.49;100.00;100220.10;1853962;75;938754;-75
2020/12/06 06:40:49;;;;;;;19.70;12.53;;;;;;;3.42;100.00;100226.34;1845376;77;938751;-74
2020/12/06 06:43:19;;;;;;;21.17;14.00;;;;;;;3.59;100.00;100224.34;1854046;75;938728;-74
2020/12/06 06:45:51;;;;;;;19.70;13.97;;;;;;;3.57;100.00;100224.31;1844725;76;938833;-74
2020/12/06 06:48:22;;;;;;;22.22;14.87;;;;;;;3.53;100.00;100228.66;1853475;75;938950;-73
2020/12/06 06:50:53;;;;;;;23.73;14.60;;;;;;;3.48;100.00;100224.47;1845614;76;938812;-74
2020/12/06 06:53:25;;;;;;;24.57;15.35;;;;;;;3.45;100.00;100227.19;1854136;75;939135;-75
2020/12/06 06:55:56;;;;;;;26.33;15.40;;;;;;;3.42;100.00;100233.73;1866165;76;938748;-74
2020/12/06 06:58:27;;;;;;;24.30;15.60;;;;;;;3.40;100.00;100236.72;1833076;76;938811;-74
2020/12/06 07:01:20;;;;;;;24.30;16.00;;;;;;;3.31;100.00;100232.75;1866032;75;937388;-74
2020/12/06 07:03:51;;;;;;;26.57;16.13;;;;;;;3.47;100.00;100240.64;1843972;77;938870;-74
2020/12/06 07:06:46;;;;;;;29.80;17.30;;;;;;;3.49;100.00;100244.81;1853697;76;946367;-73
2020/12/06 07:09:18;;;;;;;37.50;19.00;;;;;;;3.56;100.00;100252.85;1832100;76;938748;-77
2020/12/06 07:11:50;;;;;;;27.87;17.23;;;;;;;3.61;100.00;100248.80;1866139;76;938740;-75
2020/12/06 07:14:22;;;;;;;32.42;18.85;;;;;;;3.55;100.00;100251.22;1833339;77;938728;-75
2020/12/06 07:16:52;;;;;;;28.43;17.60;;;;;;;3.55;100.00;100257.51;1866158;75;938699;-74
2020/12/06 07:19:22;;;;;;;30.23;19.07;;;;;;;3.32;100.00;100261.03;1833428;76;938940;-74
2020/12/06 07:21:53;;;;;;;34.33;19.80;;;;;;;3.38;100.00;100262.20;1865595;76;938773;-74
2020/12/06 07:24:23;;;;;;;33.17;18.93;;;;;;;3.51;100.00;100269.25;1853992;76;938725;-75
2020/12/06 07:26:53;;;;;;;33.73;19.20;;;;;;;3.39;100.00;100272.65;1866183;76;938767;-74
2020/12/06 07:29:22;;;;;;;32.42;18.77;;;;;;;3.53;100.00;100273.42;1833415;76;938727;-74
2020/12/06 07:31:52;;;;;;;32.20;18.97;;;;;;;3.55;100.00;100273.18;1865850;75;938842;-74
2020/12/06 07:34:22;;;;;;;31.07;18.33;;;;;;;3.64;100.00;100275.75;1833313;77;938820;-73
2020/12/06 07:36:52;;;;;;;30.97;18.40;;;;;;;3.68;100.00;100276.36;1866112;76;938717;-74
2020/12/06 07:39:22;;;;;;;31.57;18.87;;;;;;;3.57;100.00;100275.95;1853853;75;938752;-73
2020/12/06 07:41:52;;;;;;;28.27;17.77;;;;;;;3.66;100.00;100277.17;1866211;76;938793;-73
2020/12/06 07:44:22;;;;;;;31.60;19.03;;;;;;;3.60;100.00;100285.04;1853881;75;938767;-73
2020/12/06 07:47:01;;;;;;;33.33;18.53;;;;;;;3.74;100.00;100291.00;1845563;76;938835;-72
2020/12/06 07:49:42;;;;;;;32.43;18.43;;;;;;;3.66;100.00;100286.78;1853348;75;938831;-75
2020/12/06 07:52:21;;;;;;;31.30;18.20;;;;;;;3.68;100.00;100291.20;1833330;76;938907;-75
2020/12/06 07:54:55;;;;;;;31.67;19.10;;;;;;;3.85;100.00;100295.53;1866236;76;938736;-75
2020/12/06 07:57:37;;;;;;;30.73;17.83;;;;;;;3.72;100.00;100297.84;1833225;77;938874;-75
2020/12/06 08:00:09;;;;;;;33.80;18.62;;;;;;;3.65;100.00;100306.25;1865995;75;937030;-76
2020/12/06 08:02:42;;;;;;;31.67;17.77;;;;;;;3.62;100.00;100309.52;1845273;76;938921;-73
2020/12/06 08:05:15;;;;;;;34.57;18.90;;;;;;;3.60;100.00;100302.89;1853852;75;938815;-73
2020/12/06 08:07:47;;;;;;;30.30;18.13;;;;;;;3.80;100.00;100300.16;1844789;77;938920;-73
2020/12/06 08:10:19;;;;;;;31.07;18.13;;;;;;;3.78;100.00;100307.27;1853631;75;938832;-74
2020/12/06 08:12:51;;;;;;;28.20;17.93;;;;;;;3.64;100.00;100301.30;1845467;77;938803;-75
2020/12/06 08:15:25;;;;;;;30.60;17.98;;;;;;;3.78;100.00;100293.53;1853919;75;938845;-75
2020/12/06 08:17:55;;;;;;;30.13;18.23;;;;;;;3.90;100.00;100298.89;1866150;75;938742;-75
2020/12/06 08:20:27;;;;;;;36.05;18.80;;;;;;;3.82;100.00;100304.83;1832823;77;938690;-73
2020/12/06 08:22:59;;;;;;;30.03;17.67;;;;;;;3.90;100.00;100304.39;1866157;75;936936;-73
2020/12/06 08:25:30;;;;;;;32.67;19.57;;;;;;;3.86;100.00;100299.95;1853673;75;938990;-75
2020/12/06 08:28:02;;;;;;;31.40;18.13;;;;;;;3.89;100.00;100295.88;1845499;76;937135;-73
2020/12/06 08:30:33;;;;;;;34.70;18.63;;;;;;;3.98;100.00;100297.91;1852790;76;938752;-74
2020/12/06 08:33:04;;;;;;;30.90;19.13;;;;;;;3.99;100.00;100298.73;1866645;76;936954;-74
2020/12/06 08:35:42;;;;;;;32.80;19.00;;;;;;;3.91;100.00;100303.31;1831417;77;939078;-73
2020/12/06 08:38:20;;;;;;;32.47;17.70;;;;;;;3.93;100.00;100299.78;1854001;75;938899;-75
2020/12/06 08:41:10;;;;;;;29.37;17.63;;;;;;;3.94;100.00;100297.30;1866221;75;938848;-76
2020/12/06 08:43:50;;;;;;;29.67;17.17;;;;;;;4.04;100.00;100295.52;1866212;75;938735;-76
2020/12/06 08:46:22;;;;;;;29.87;17.20;;;;;;;3.95;100.00;100294.30;1832818;77;939040;-76
2020/12/06 08:48:55;;;;;;;30.23;17.03;;;;;;;3.98;100.00;100295.73;1866514;75;938851;-75
2020/12/06 08:51:27;;;;;;;23.45;14.98;;;;;;;4.05;100.00;100296.36;1833099;76;939046;-75
2020/12/06 08:53:58;;;;;;;26.20;16.43;;;;;;;4.08;100.00;100287.59;1865926;75;936853;-78
2020/12/06 08:56:33;;;;;;;26.23;15.85;;;;;;;4.05;100.00;100292.23;1833104;76;938777;-74
2020/12/06 08:59:04;;;;;;;21.27;13.90;;;;;;;4.12;100.00;100289.57;1866221;76;936868;-75
2020/12/06 09:01:36;;;;;;;25.00;15.13;;;;;;;4.15;100.00;100292.34;1833129;76;938914;-75
2020/12/06 09:04:06;;;;;;;22.03;15.40;;;;;;;4.12;100.00;100291.48;1864536;76;937019;-77
2020/12/06 09:06:36;;;;;;;26.70;16.17;;;;;;;4.19;100.00;100290.77;1866481;76;938710;-77
2020/12/06 09:09:07;;;;;;;27.80;17.67;;;;;;;4.23;100.00;100295.20;1866142;76;936901;-77
2020/12/06 09:11:37;;;;;;;25.57;16.63;;;;;;;4.36;100.00;100302.51;1845523;77;938965;-78
2020/12/06 09:14:07;;;;;;;26.27;15.70;;;;;;;4.29;100.00;100295.53;1866297;75;936881;-77
2020/12/06 09:16:40;;;;;;;27.37;16.63;;;;;;;4.34;100.00;100295.59;1845648;76;938737;-78
2020/12/06 09:19:11;;;;;;;26.23;17.23;;;;;;;4.29;100.00;100298.28;1860544;75;938738;-78
2020/12/06 09:21:41;;;;;;;28.27;17.87;;;;;;;4.21;100.00;100295.45;1859973;75;939156;-78
2020/12/06 09:24:11;;;;;;;27.80;18.15;;;;;;;4.21;100.00;100295.45;1834506;76;939246;-82
2020/12/06 09:26:41;;;;;;;25.33;16.43;;;;;;;4.25;100.00;100281.47;1859624;76;938657;-82
2020/12/06 09:29:11;;;;;;;27.30;15.97;;;;;;;4.28;100.00;100302.94;1833711;76;938709;-81
2020/12/06 09:31:41;;;;;;;25.43;16.33;;;;;;;4.09;100.00;100268.11;1854520;75;938738;-82
2020/12/06 09:34:11;;;;;;;25.08;15.95;;;;;;;4.21;100.00;100295.45;1834376;76;938747;-79
2020/12/06 09:36:44;;;;;;;23.50;16.12;;;;;;;4.18;100.00;100287.72;1853750;75;938920;-78
2020/12/06 09:39:14;;;;;;;22.17;13.87;;;;;;;4.29;100.00;100293.61;1833470;76;938765;-78
2020/12/06 09:41:47;;;;;;;23.23;14.33;;;;;;;4.24;100.00;100297.67;1866104;75;938886;-77
2020/12/06 09:44:17;;;;;;;24.67;14.23;;;;;;;4.22;100.00;100305.90;1833503;76;938734;-76
2020/12/06 09:46:47;;;;;;;24.13;14.80;;;;;;;4.21;100.00;100303.69;1866414;75;938900;-77
2020/12/06 09:49:17;;;;;;;24.02;14.83;;;;;;;4.29;100.00;100308.73;1833237;76;938812;-77
2020/12/06 09:51:47;;;;;;;23.33;14.13;;;;;;;4.30;100.00;100318.65;1866063;75;938957;-77
2020/12/06 09:54:16;;;;;;;26.12;15.58;;;;;;;4.25;100.00;100324.62;1832724;76;938759;-77
2020/12/06 09:56:46;;;;;;;21.60;14.67;;;;;;;4.28;100.00;100329.63;1865598;76;938783;-77
2020/12/06 09:59:16;;;;;;;24.30;15.30;;;;;;;4.28;100.00;100324.94;1833249;76;938846;-77
2020/12/06 10:01:46;;;;;;;21.10;14.37;;;;;;;4.28;100.00;100333.75;1866238;75;938855;-77
2020/12/06 10:04:16;;;;;;;22.90;13.78;;;;;;;4.26;100.00;100334.53;1832634;76;938659;-77
2020/12/06 10:06:46;;;;;;;22.03;14.23;;;;;;;4.30;100.00;100333.77;1866172;75;938761;-77
2020/12/06 10:09:16;;;;;;;18.95;13.53;;;;;;;4.32;100.00;100334.33;1832900;76;938922;-77
2020/12/06 10:11:46;;;;;;;22.93;13.77;;;;;;;4.32;100.00;100332.95;1865820;75;938698;-77
2020/12/06 10:14:16;;;;;;;22.75;14.28;;;;;;;4.26;100.00;100334.53;1832837;76;938712;-77
2020/12/06 10:16:46;;;;;;;22.00;14.60;;;;;;;4.25;100.00;100329.58;1866007;75;938799;-77
2020/12/06 10:19:16;;;;;;;20.05;13.30;;;;;;;4.33;100.00;100331.87;1853999;75;938717;-77
2020/12/06 10:21:45;;;;;;;20.20;13.33;;;;;;;4.25;100.00;100326.83;1866041;75;938829;-77
2020/12/06 10:24:15;;;;;;;21.65;13.85;;;;;;;4.37;100.00;100330.80;1833366;76;938748;-77
2020/12/06 10:26:45;;;;;;;21.53;14.87;;;;;;;4.43;100.00;100329.79;1865456;76;938679;-78
2020/12/06 10:29:15;;;;;;;18.17;13.73;;;;;;;4.59;100.00;100335.73;1833432;77;938789;-77
2020/12/06 10:31:45;;;;;;;21.30;13.87;;;;;;;4.41;100.00;100336.91;1866067;76;938734;-77
2020/12/06 10:34:15;;;;;;;19.70;13.68;;;;;;;4.42;100.00;100336.37;1833028;77;938844;-77
2020/12/06 10:36:49;;;;;;;20.57;14.27;;;;;;;4.57;100.00;100337.94;1850462;76;938833;-77
2020/12/06 10:39:21;;;;;;;20.80;14.30;;;;;;;4.45;100.00;100337.25;1850875;76;938619;-77
2020/12/06 10:41:51;;;;;;;21.03;14.03;;;;;;;4.42;100.00;100342.70;1845766;76;938794;-78
2020/12/06 10:44:22;;;;;;;21.07;13.88;;;;;;;4.47;100.00;100334.52;1853997;75;938605;-77
2020/12/06 10:46:53;;;;;;;21.43;13.93;;;;;;;4.49;100.00;100337.02;1845566;76;938712;-77
2020/12/06 10:49:23;;;;;;;18.40;13.13;;;;;;;4.43;100.00;100327.04;1853044;75;938809;-78
2020/12/06 10:51:52;;;;;;;19.03;13.70;;;;;;;4.49;100.00;100333.70;1845603;76;938876;-77
2020/12/06 10:54:22;;;;;;;19.77;14.68;;;;;;;4.62;100.00;100333.03;1853672;75;938863;-77
2020/12/06 10:56:52;;;;;;;21.20;13.53;;;;;;;4.76;100.00;100340.59;1844693;77;938729;-77
2020/12/06 10:59:22;;;;;;;18.05;12.75;;;;;;;4.63;100.00;100334.67;1854104;75;938819;-77
2020/12/06 11:01:52;;;;;;;17.70;12.87;;;;;;;4.84;100.00;100332.41;1843036;77;938781;-77
2020/12/06 11:04:22;;;;;;;19.12;14.38;;;;;;;4.87;100.00;100330.54;1853813;76;938734;-77
2020/12/06 11:06:52;;;;;;;21.10;14.97;;;;;;;4.98;100.00;100318.53;1845329;76;938954;-76
2020/12/06 11:09:22;;;;;;;19.98;13.55;;;;;;;4.89;100.00;100317.34;1853685;76;938749;-77
2020/12/06 11:11:51;;;;;;;17.50;13.57;;;;;;;4.89;100.00;100321.46;1845519;76;938809;-76
2020/12/06 11:14:22;;;;;;;19.95;13.90;;;;;;;4.86;100.00;100330.25;1854090;75;939141;-77
2020/12/06 11:16:52;;;;;;;18.13;12.93;;;;;;;5.01;100.00;100327.63;1845470;76;938737;-77
2020/12/06 11:19:22;;;;;;;16.27;12.78;;;;;;;4.91;100.00;100325.63;1853676;75;938706;-77
2020/12/06 11:21:53;;;;;;;17.27;12.73;;;;;;;4.99;100.00;100323.78;1845479;77;938820;-77